createdAt,value
2022-08-22T00:01:25.184Z,89.40
2022-08-22T00:04:08.001Z,89.30
2022-08-22T00:07:03.223Z,89.60
2022-08-22T00:09:44.977Z,90.00
2022-08-22T00:12:27.561Z,89.70
2022-08-22T00:15:26.112Z,90.00
2022-08-22T00:18:22.908Z,90.00
2022-08-22T00:21:15.901Z,89.70
2022-08-22T00:24:17.680Z,90.00
2022-08-22T00:27:05.599Z,90.40
2022-08-22T00:29:44.997Z,90.20
2022-08-22T00:32:50.766Z,90.30
2022-08-22T00:35:23.449Z,90.10
2022-08-22T00:38:10.479Z,90.40
2022-08-22T00:41:14.311Z,90.20
2022-08-22T00:44:17.391Z,90.40
2022-08-22T00:47:10.827Z,90.40
2022-08-22T00:50:15.312Z,90.70
2022-08-22T00:53:19.922Z,90.90
2022-08-22T00:55:57.173Z,91.00
2022-08-22T00:58:55.703Z,90.80
2022-08-22T01:01:32.153Z,91.00
2022-08-22T01:04:33.040Z,90.90
2022-08-22T01:07:11.771Z,91.10
2022-08-22T01:10:04.485Z,90.90
2022-08-22T01:13:20.416Z,91.00
2022-08-22T01:15:50.773Z,91.00
2022-08-22T01:18:59.471Z,91.00
2022-08-22T01:22:26.553Z,91.40
2022-08-22T01:25:36.646Z,91.50
2022-08-22T01:28:41.096Z,91.50
2022-08-22T01:32:12.109Z,91.30
2022-08-22T01:35:02.240Z,91.70
2022-08-22T01:38:00.108Z,91.20
2022-08-22T01:41:06.767Z,91.10
2022-08-22T01:44:09.227Z,91.20
2022-08-22T01:47:13.929Z,91.30
2022-08-22T01:49:49.036Z,91.10
2022-08-22T01:52:43.316Z,91.10
2022-08-22T01:55:34.432Z,91.10
2022-08-22T01:58:18.971Z,91.10
2022-08-22T02:01:14.072Z,91.00
2022-08-22T02:04:05.915Z,91.30
2022-08-22T02:07:01.891Z,91.40
2022-08-22T02:09:39.462Z,91.30
2022-08-22T02:12:42.682Z,91.20
2022-08-22T02:15:30.163Z,91.70
2022-08-22T02:18:01.054Z,91.70
2022-08-22T02:21:16.594Z,91.50
2022-08-22T02:24:14.203Z,91.80
2022-08-22T02:27:05.580Z,91.70
2022-08-22T02:29:52.554Z,91.80
2022-08-22T02:32:37.237Z,91.70
2022-08-22T02:35:14.279Z,91.80
2022-08-22T02:38:24.230Z,91.70
2022-08-22T02:41:21.951Z,91.70
2022-08-22T02:43:57.963Z,91.80
2022-08-22T02:46:58.805Z,91.60
2022-08-22T02:50:14.388Z,91.80
2022-08-22T02:52:55.894Z,91.70
2022-08-22T02:55:38.254Z,91.60
2022-08-22T02:58:19.344Z,91.80
2022-08-22T03:00:50.548Z,91.70
2022-08-22T03:03:24.977Z,91.70
2022-08-22T03:06:01.807Z,91.80
2022-08-22T03:08:38.873Z,91.70
2022-08-22T03:11:32.305Z,91.70
2022-08-22T03:14:27.552Z,91.70
2022-08-22T03:17:18.404Z,91.80
2022-08-22T03:20:14.790Z,91.80
2022-08-22T03:22:57.403Z,91.90
2022-08-22T03:25:39.730Z,91.80
2022-08-22T03:28:20.862Z,91.80
2022-08-22T03:30:56.942Z,91.70
2022-08-22T03:33:30.918Z,91.80
2022-08-22T03:36:08.300Z,91.80
2022-08-22T03:38:36.322Z,91.70
2022-08-22T03:41:35.549Z,91.70
2022-08-22T03:44:34.435Z,91.90
2022-08-22T03:47:31.967Z,92.00
2022-08-22T03:50:28.584Z,91.90
2022-08-22T03:53:32.510Z,92.10
2022-08-22T03:56:38.888Z,92.00
2022-08-22T03:59:52.576Z,92.00
2022-08-22T04:02:42.928Z,91.90
2022-08-22T04:05:32.546Z,92.10
2022-08-22T04:08:45.122Z,91.90
2022-08-22T04:11:48.854Z,92.00
2022-08-22T04:14:49.601Z,92.10
2022-08-22T04:17:48.300Z,92.20
2022-08-22T04:20:43.038Z,92.00
2022-08-22T04:23:41.030Z,92.10
2022-08-22T04:26:17.492Z,91.90
2022-08-22T04:28:52.477Z,91.90
2022-08-22T04:31:27.884Z,91.90
2022-08-22T04:34:10.894Z,91.90
2022-08-22T04:36:55.937Z,91.90
2022-08-22T04:39:40.628Z,92.40
2022-08-22T04:42:32.557Z,92.20
2022-08-22T04:45:12.530Z,92.30
2022-08-22T04:47:54.870Z,92.20
2022-08-22T04:50:35.061Z,92.30
2022-08-22T04:53:16.868Z,92.30
2022-08-22T04:56:11.407Z,92.30
2022-08-22T04:59:04.634Z,92.30
2022-08-22T05:01:58.562Z,92.30
2022-08-22T05:04:46.452Z,92.50
2022-08-22T05:07:25.237Z,92.40
2022-08-22T05:10:20.239Z,92.40
2022-08-22T05:13:07.297Z,92.50
2022-08-22T05:15:37.909Z,92.50
2022-08-22T05:18:29.631Z,92.50
2022-08-22T05:21:02.203Z,92.60
2022-08-22T05:23:55.831Z,92.80
2022-08-22T05:26:23.208Z,92.80
2022-08-22T05:28:58.479Z,92.80
2022-08-22T05:31:31.130Z,92.70
2022-08-22T05:34:23.100Z,92.60
2022-08-22T05:37:00.021Z,92.70
2022-08-22T05:39:29.849Z,92.70
2022-08-22T05:42:00.776Z,92.70
2022-08-22T05:44:34.950Z,93.20
2022-08-22T05:47:21.458Z,93.10
2022-08-22T05:50:43.257Z,93.10
2022-08-22T05:53:28.467Z,93.10
2022-08-22T05:56:19.240Z,93.00
2022-08-22T05:58:54.868Z,93.00
2022-08-22T06:01:29.560Z,92.80
2022-08-22T06:04:32.000Z,92.70
2022-08-22T06:07:07.339Z,92.60
2022-08-22T06:09:46.389Z,92.60
2022-08-22T06:12:45.440Z,92.70
2022-08-22T06:15:23.019Z,92.90
2022-08-22T06:18:05.196Z,92.90
2022-08-22T06:20:43.566Z,93.00
2022-08-22T06:23:20.230Z,93.30
2022-08-22T06:25:49.860Z,93.30
2022-08-22T06:28:25.201Z,93.30
2022-08-22T06:30:55.662Z,93.40
2022-08-22T06:33:28.780Z,93.50
2022-08-22T06:36:21.633Z,93.70
2022-08-22T06:39:20.300Z,93.80
2022-08-22T06:42:16.699Z,93.90
2022-08-22T06:44:51.682Z,93.90
2022-08-22T06:47:37.728Z,93.90
2022-08-22T06:50:14.186Z,93.80
2022-08-22T06:53:00.788Z,93.80
2022-08-22T06:55:30.182Z,93.40
2022-08-22T06:58:03.961Z,93.40
2022-08-22T07:00:34.640Z,93.40
2022-08-22T07:03:16.192Z,93.20
2022-08-22T07:05:43.968Z,92.60
2022-08-22T07:08:19.892Z,92.70
2022-08-22T07:11:27.539Z,92.50
2022-08-22T07:14:00.867Z,91.90
2022-08-22T07:16:40.820Z,91.60
2022-08-22T07:19:10.515Z,91.60
2022-08-22T07:21:46.280Z,91.60
2022-08-22T07:24:24.485Z,91.60
2022-08-22T07:27:06.089Z,91.60
2022-08-22T07:30:01.207Z,91.40
2022-08-22T07:33:25.721Z,91.10
2022-08-22T07:36:00.637Z,90.80
2022-08-22T07:38:43.700Z,90.00
2022-08-22T07:41:53.944Z,90.00
2022-08-22T07:44:24.280Z,89.20
2022-08-22T07:47:00.971Z,88.90
2022-08-22T07:49:49.894Z,88.70
2022-08-22T07:52:18.010Z,88.40
2022-08-22T07:54:56.229Z,88.10
2022-08-22T07:57:38.767Z,87.80
2022-08-22T08:00:17.457Z,87.00
2022-08-22T08:02:53.072Z,87.60
2022-08-22T08:05:24.745Z,86.70
2022-08-22T08:07:55.632Z,86.80
2022-08-22T08:10:29.538Z,86.60
2022-08-22T08:13:12.735Z,86.20
2022-08-22T08:15:40.831Z,85.20
2022-08-22T08:18:21.914Z,84.90
2022-08-22T08:21:00.178Z,84.40
2022-08-22T08:23:32.033Z,83.00
2022-08-22T08:26:17.506Z,83.30
2022-08-22T08:28:58.173Z,81.70
2022-08-22T08:31:38.173Z,80.20
2022-08-22T08:34:22.442Z,80.70
2022-08-22T08:36:54.753Z,80.90
2022-08-22T08:39:37.393Z,80.80
2022-08-22T08:42:59.236Z,80.20
2022-08-22T08:46:14.289Z,79.50
2022-08-22T08:49:06.534Z,78.20
2022-08-22T08:52:18.255Z,78.30
2022-08-22T08:55:21.743Z,77.30
2022-08-22T08:58:33.715Z,75.80
2022-08-22T09:01:13.983Z,76.10
2022-08-22T09:07:53.456Z,73.70
2022-08-22T09:10:58.876Z,75.80
2022-08-22T09:13:47.251Z,73.70
2022-08-22T09:17:07.690Z,75.10
2022-08-22T09:20:03.011Z,75.00
2022-08-22T09:26:52.217Z,72.40
2022-08-22T09:30:11.827Z,71.90
2022-08-22T09:32:56.851Z,69.80
2022-08-22T09:36:13.215Z,70.40
2022-08-22T09:39:19.128Z,69.80
2022-08-22T09:42:15.522Z,69.80
2022-08-22T09:45:11.664Z,68.50
2022-08-22T09:47:58.406Z,68.40
2022-08-22T09:50:52.719Z,68.20
2022-08-22T09:53:43.399Z,68.70
2022-08-22T09:56:26.041Z,69.50
2022-08-22T09:59:22.407Z,69.20
2022-08-22T10:02:06.195Z,68.80
2022-08-22T10:05:13.752Z,68.20
2022-08-22T10:08:20.055Z,68.40
2022-08-22T10:11:22.878Z,69.20
2022-08-22T10:14:13.732Z,69.70
2022-08-22T10:16:49.225Z,70.00
2022-08-22T10:19:47.711Z,69.80
2022-08-22T10:22:47.272Z,69.80
2022-08-22T10:25:31.806Z,67.30
2022-08-22T10:28:41.972Z,68.10
2022-08-22T10:31:45.052Z,67.80
2022-08-22T10:34:43.348Z,67.60
2022-08-22T10:37:39.686Z,64.90
2022-08-22T10:40:44.027Z,67.20
2022-08-22T10:44:00.446Z,67.20
2022-08-22T10:46:51.896Z,66.60
2022-08-22T10:49:43.373Z,65.30
2022-08-22T10:52:21.901Z,67.50
2022-08-22T10:55:09.819Z,65.60
2022-08-22T10:58:01.898Z,67.20
2022-08-22T11:00:50.796Z,67.50
2022-08-22T11:03:40.252Z,67.90
2022-08-22T11:06:18.067Z,68.10
2022-08-22T11:09:16.997Z,67.00
2022-08-22T11:12:34.592Z,64.90
2022-08-22T11:15:43.507Z,66.00
2022-08-22T11:18:23.715Z,64.30
2022-08-22T11:21:12.134Z,65.70
2022-08-22T11:23:48.274Z,65.70
2022-08-22T11:26:46.985Z,65.70
2022-08-22T11:29:29.681Z,65.70
2022-08-22T11:32:25.633Z,65.80
2022-08-22T11:35:09.244Z,64.80
2022-08-22T11:37:42.981Z,64.30
2022-08-22T11:40:36.227Z,65.30
2022-08-22T11:43:32.481Z,65.30
2022-08-22T11:46:14.433Z,64.20
2022-08-22T11:49:09.040Z,62.60
2022-08-22T11:52:04.952Z,62.40
2022-08-22T11:54:40.130Z,61.40
2022-08-22T11:57:12.689Z,60.90
2022-08-22T11:59:43.145Z,61.70
2022-08-22T12:02:26.382Z,60.00
2022-08-22T12:04:59.676Z,60.20
2022-08-22T12:07:37.033Z,61.10
2022-08-22T12:10:18.143Z,60.30
2022-08-22T12:13:05.736Z,61.20
2022-08-22T12:16:06.203Z,61.20
2022-08-22T12:18:54.390Z,61.40
2022-08-22T12:21:51.542Z,59.50
2022-08-22T12:24:33.348Z,60.20
2022-08-22T12:27:28.866Z,60.60
2022-08-22T12:30:14.487Z,60.20
2022-08-22T12:33:10.539Z,60.80
2022-08-22T12:36:09.613Z,62.10
2022-08-22T12:39:18.420Z,59.70
2022-08-22T12:42:05.714Z,60.60
2022-08-22T12:45:05.792Z,60.00
2022-08-22T12:48:35.870Z,61.40
2022-08-22T12:51:35.183Z,61.20
2022-08-22T12:54:27.901Z,60.80
2022-08-22T12:57:24.501Z,59.20
2022-08-22T13:00:16.641Z,60.00
2022-08-22T13:02:54.155Z,60.50
2022-08-22T13:05:26.349Z,59.90
2022-08-22T13:08:04.529Z,60.30
2022-08-22T13:10:49.814Z,61.00
2022-08-22T13:13:36.531Z,61.80
2022-08-22T13:16:15.656Z,60.00
2022-08-22T13:18:59.273Z,60.20
2022-08-22T13:21:35.996Z,60.70
2022-08-22T13:24:16.647Z,60.20
2022-08-22T13:26:54.039Z,59.00
2022-08-22T13:29:39.368Z,59.10
2022-08-22T13:32:23.813Z,59.30
2022-08-22T13:34:56.333Z,59.10
2022-08-22T13:37:40.219Z,59.40
2022-08-22T13:40:14.448Z,59.20
2022-08-22T13:42:49.324Z,58.60
2022-08-22T13:45:28.624Z,59.30
2022-08-22T13:48:00.937Z,58.80
2022-08-22T13:50:35.883Z,57.90
2022-08-22T13:53:48.989Z,59.00
2022-08-22T13:56:39.809Z,59.70
2022-08-22T13:59:54.784Z,59.30
2022-08-22T14:02:52.182Z,59.80
2022-08-22T14:05:38.136Z,60.20
2022-08-22T14:08:25.878Z,60.40
2022-08-22T14:11:19.184Z,59.30
2022-08-22T14:13:59.337Z,58.80
2022-08-22T14:16:39.877Z,59.40
2022-08-22T14:19:12.186Z,59.10
2022-08-22T14:21:51.855Z,59.10
2022-08-22T14:24:31.248Z,59.80
2022-08-22T14:27:34.191Z,60.40
2022-08-22T14:30:16.164Z,61.20
2022-08-22T14:32:59.748Z,61.00
2022-08-22T14:35:35.139Z,62.00
2022-08-22T14:38:35.704Z,61.90
2022-08-22T14:41:28.632Z,62.20
2022-08-22T14:44:27.011Z,62.80
2022-08-22T14:47:01.925Z,63.50
2022-08-22T14:50:00.617Z,64.20
2022-08-22T14:52:53.196Z,64.90
2022-08-22T14:55:30.590Z,64.70
2022-08-22T14:58:03.448Z,64.90
2022-08-22T15:00:36.804Z,65.20
2022-08-22T15:03:12.991Z,64.30
2022-08-22T15:06:09.926Z,64.00
2022-08-22T15:08:49.681Z,64.60
2022-08-22T15:11:20.913Z,64.50
2022-08-22T15:14:07.316Z,64.90
2022-08-22T15:16:52.160Z,65.20
2022-08-22T15:19:44.452Z,65.40
2022-08-22T15:22:21.895Z,64.80
2022-08-22T15:25:26.906Z,64.60
2022-08-22T15:28:05.783Z,64.90
2022-08-22T15:30:45.612Z,64.80
2022-08-22T15:33:16.493Z,65.00
2022-08-22T15:35:45.475Z,65.60
2022-08-22T15:38:48.135Z,65.50
2022-08-22T15:41:36.703Z,65.90
2022-08-22T15:44:30.589Z,64.70
2022-08-22T15:47:13.465Z,65.30
2022-08-22T15:50:02.714Z,65.60
2022-08-22T15:52:59.642Z,66.50
2022-08-22T15:55:34.435Z,65.90
2022-08-22T15:58:12.975Z,66.00
2022-08-22T16:01:05.566Z,66.20
2022-08-22T16:04:04.599Z,66.70
2022-08-22T16:06:49.174Z,67.10
2022-08-22T16:09:50.416Z,66.80
2022-08-22T16:12:45.701Z,66.50
2022-08-22T16:15:55.720Z,66.50
2022-08-22T16:18:39.430Z,66.60
2022-08-22T16:21:22.091Z,67.30
2022-08-22T16:23:53.592Z,67.30
2022-08-22T16:26:24.956Z,67.00
2022-08-22T16:29:12.374Z,66.90
2022-08-22T16:31:44.473Z,67.00
2022-08-22T16:34:17.218Z,67.30
2022-08-22T16:37:08.695Z,67.70
2022-08-22T16:39:42.001Z,68.50
2022-08-22T16:42:15.627Z,68.50
2022-08-22T16:45:02.303Z,69.00
2022-08-22T16:47:36.130Z,69.30
2022-08-22T16:50:18.406Z,69.30
2022-08-22T16:53:01.200Z,70.40
2022-08-22T16:55:31.055Z,70.70
2022-08-22T16:58:44.981Z,71.40
2022-08-22T17:01:41.321Z,71.10
2022-08-22T17:04:28.128Z,70.80
2022-08-22T17:07:09.727Z,70.60
2022-08-22T17:09:56.126Z,71.00
2022-08-22T17:13:10.176Z,71.20
2022-08-22T17:16:05.842Z,71.30
2022-08-22T17:18:57.830Z,71.20
2022-08-22T17:21:51.010Z,71.60
2022-08-22T17:24:34.482Z,71.90
2022-08-22T17:27:23.356Z,71.30
2022-08-22T17:30:09.607Z,71.40
2022-08-22T17:33:12.113Z,71.30
2022-08-22T17:36:26.327Z,72.00
2022-08-22T17:39:16.763Z,71.90
2022-08-22T17:42:00.283Z,72.10
2022-08-22T17:45:18.080Z,73.50
2022-08-22T17:47:54.260Z,73.40
2022-08-22T17:50:33.175Z,74.00
2022-08-22T17:53:16.256Z,74.50
2022-08-22T17:56:17.075Z,75.80
2022-08-22T17:59:01.048Z,75.70
2022-08-22T18:01:58.692Z,77.10
2022-08-22T18:04:43.361Z,76.90
2022-08-22T18:07:31.702Z,77.50
2022-08-22T18:10:21.657Z,78.10
2022-08-22T18:13:31.609Z,78.30
2022-08-22T18:16:16.391Z,78.20
2022-08-22T18:18:56.181Z,79.20
2022-08-22T18:21:33.150Z,79.50
2022-08-22T18:24:16.454Z,79.90
2022-08-22T18:26:58.484Z,80.00
2022-08-22T18:29:49.601Z,79.90
2022-08-22T18:32:35.660Z,80.30
2022-08-22T18:35:28.986Z,80.70
2022-08-22T18:38:19.808Z,81.80
2022-08-22T18:40:59.109Z,81.00
2022-08-22T18:43:44.490Z,81.70
2022-08-22T18:46:42.844Z,82.10
2022-08-22T18:49:19.521Z,82.00
2022-08-22T18:52:26.857Z,82.80
2022-08-22T18:55:43.752Z,82.80
2022-08-22T18:58:28.250Z,82.80
2022-08-22T19:01:15.715Z,83.20
2022-08-22T19:04:17.448Z,82.90
2022-08-22T19:07:05.445Z,83.50
2022-08-22T19:09:57.932Z,84.20
2022-08-22T19:13:02.268Z,84.40
2022-08-22T19:15:56.654Z,83.70
2022-08-22T19:18:44.783Z,84.00
2022-08-22T19:21:34.732Z,84.90
2022-08-22T19:24:29.666Z,83.90
2022-08-22T19:27:23.648Z,83.70
2022-08-22T19:29:56.275Z,84.00
2022-08-22T19:33:00.240Z,84.00
2022-08-22T19:35:44.141Z,84.00
2022-08-22T19:38:11.774Z,84.30
2022-08-22T19:40:44.702Z,84.50
2022-08-22T19:43:30.472Z,84.60
2022-08-22T19:46:00.990Z,85.00
2022-08-22T19:48:44.443Z,85.10
2022-08-22T19:51:32.015Z,85.10
2022-08-22T19:54:01.819Z,85.50
2022-08-22T19:57:15.699Z,85.70
2022-08-22T20:00:08.288Z,86.10
2022-08-22T20:03:32.430Z,86.30
2022-08-22T20:06:40.683Z,86.60
2022-08-22T20:09:25.328Z,87.30
2022-08-22T20:12:01.330Z,86.80
2022-08-22T20:14:35.276Z,86.90
2022-08-22T20:17:38.455Z,87.00
2022-08-22T20:20:24.010Z,87.00
2022-08-22T20:23:29.726Z,87.10
2022-08-22T20:25:57.726Z,87.30
2022-08-22T20:28:33.244Z,86.70
2022-08-22T20:31:06.350Z,87.00
2022-08-22T20:33:38.308Z,87.60
2022-08-22T20:36:16.643Z,87.70
2022-08-22T20:39:01.167Z,88.20
2022-08-22T20:41:40.896Z,88.10
2022-08-22T20:44:18.548Z,88.60
2022-08-22T20:47:04.652Z,88.50
2022-08-22T20:49:46.215Z,88.70
2022-08-22T20:52:33.736Z,88.30
2022-08-22T20:55:31.696Z,88.40
2022-08-22T20:58:03.919Z,88.40
2022-08-22T21:00:36.468Z,87.90
2022-08-22T21:03:12.912Z,88.10
2022-08-22T21:05:44.551Z,88.40
2022-08-22T21:08:21.196Z,88.00
2022-08-22T21:11:20.252Z,88.00
2022-08-22T21:13:47.712Z,88.10
2022-08-22T21:16:22.280Z,87.70
2022-08-22T21:18:54.011Z,87.90
2022-08-22T21:21:28.808Z,88.10
2022-08-22T21:24:02.488Z,88.10
2022-08-22T21:26:36.560Z,88.50
2022-08-22T21:29:18.740Z,88.40
2022-08-22T21:31:48.735Z,88.70
2022-08-22T21:34:32.352Z,88.50
2022-08-22T21:37:07.772Z,89.00
2022-08-22T21:39:45.164Z,88.30
2022-08-22T21:42:23.879Z,88.70
2022-08-22T21:45:00.115Z,88.80
2022-08-22T21:47:32.397Z,89.00
2022-08-22T21:50:25.889Z,88.90
2022-08-22T21:52:55.701Z,89.30
2022-08-22T21:55:42.976Z,89.10
2022-08-22T21:58:35.947Z,89.40
2022-08-22T22:01:30.551Z,89.60
2022-08-22T22:03:59.136Z,89.60
2022-08-22T22:06:27.368Z,88.90
2022-08-22T22:08:54.438Z,89.00
2022-08-22T22:11:21.405Z,89.10
2022-08-22T22:13:48.948Z,89.10
2022-08-22T22:16:25.524Z,89.10
2022-08-22T22:18:52.439Z,89.50
2022-08-22T22:21:19.561Z,89.30
2022-08-22T22:23:46.621Z,89.40
2022-08-22T22:26:14.263Z,89.60
2022-08-22T22:28:47.406Z,89.70
2022-08-22T22:31:16.327Z,89.90
2022-08-22T22:33:43.926Z,89.90
2022-08-22T22:36:23.085Z,90.00
2022-08-22T22:38:51.691Z,90.30
2022-08-22T22:41:20.366Z,90.10
2022-08-22T22:43:47.332Z,90.20
2022-08-22T22:46:14.236Z,90.20
2022-08-22T22:48:41.153Z,90.20
2022-08-22T22:51:11.080Z,90.20
2022-08-22T22:53:40.296Z,90.30
2022-08-22T22:56:14.153Z,90.30
2022-08-22T22:58:43.467Z,90.40
2022-08-22T23:01:23.685Z,90.40
2022-08-22T23:03:56.013Z,90.50
2022-08-22T23:06:27.774Z,90.40
2022-08-22T23:08:55.243Z,90.40
2022-08-22T23:11:31.395Z,90.50
2022-08-22T23:13:58.345Z,90.70
2022-08-22T23:16:28.212Z,90.50
2022-08-22T23:18:56.246Z,90.70
2022-08-22T23:21:30.287Z,90.80
2022-08-22T23:23:59.679Z,91.00
2022-08-22T23:26:27.792Z,90.90
2022-08-22T23:28:55.614Z,90.90
2022-08-22T23:31:43.149Z,90.90
2022-08-22T23:34:14.743Z,91.20
2022-08-22T23:36:45.925Z,91.00
2022-08-22T23:39:15.569Z,91.20
2022-08-22T23:41:43.257Z,91.10
2022-08-22T23:44:13.730Z,91.20
2022-08-22T23:46:42.051Z,91.30
2022-08-22T23:49:09.765Z,91.30
2022-08-22T23:51:37.029Z,91.30
2022-08-22T23:54:04.668Z,91.30
2022-08-22T23:56:49.628Z,91.30
2022-08-22T23:59:22.415Z,91.40
